createdAt,value
2019-02-20T00:00:30.039Z,5.10
2019-02-20T00:03:07.047Z,5.19
2019-02-20T00:05:44.523Z,5.07
2019-02-20T00:08:19.458Z,4.70
2019-02-20T00:10:53.681Z,4.70
2019-02-20T00:13:28.337Z,4.54
2019-02-20T00:16:03.008Z,5.04
2019-02-20T00:18:37.618Z,5.01
2019-02-20T00:21:11.950Z,4.72
2019-02-20T00:23:46.796Z,4.30
2019-02-20T00:26:21.432Z,4.26
2019-02-20T00:28:55.958Z,4.35
2019-02-20T00:31:30.593Z,4.32
2019-02-20T00:34:04.633Z,3.95
2019-02-20T00:36:38.275Z,3.95
2019-02-20T00:39:12.670Z,3.94
2019-02-20T00:41:52.852Z,3.79
2019-02-20T00:44:47.420Z,4.19
2019-02-20T00:47:33.922Z,4.13
2019-02-20T00:50:08.335Z,3.86
2019-02-20T00:52:49.792Z,4.37
2019-02-20T00:55:24.126Z,3.87
2019-02-20T00:57:58.974Z,3.87
2019-02-20T01:00:33.315Z,4.06
2019-02-20T01:03:07.796Z,4.06
2019-02-20T01:05:42.488Z,3.79
2019-02-20T01:08:16.988Z,3.90
2019-02-20T01:10:51.645Z,3.90
2019-02-20T01:13:25.141Z,4.19
2019-02-20T01:15:59.681Z,3.96
2019-02-20T01:18:34.049Z,3.98
2019-02-20T01:21:08.697Z,3.98
2019-02-20T01:23:43.057Z,3.85
2019-02-20T01:26:17.669Z,3.79
2019-02-20T01:28:52.039Z,4.22
2019-02-20T01:31:26.545Z,4.22
2019-02-20T01:34:01.497Z,3.83
2019-02-20T01:36:35.998Z,3.88
2019-02-20T01:39:10.536Z,3.88
2019-02-20T01:41:44.869Z,3.93
2019-02-20T01:44:19.310Z,4.03
2019-02-20T01:46:53.625Z,3.93
2019-02-20T01:49:27.276Z,4.15
2019-02-20T01:52:01.613Z,3.92
2019-02-20T01:54:35.277Z,4.05
2019-02-20T01:57:09.808Z,3.89
2019-02-20T01:59:44.123Z,3.89
2019-02-20T02:02:18.769Z,3.73
2019-02-20T02:04:53.521Z,3.62
2019-02-20T02:07:27.821Z,3.84
2019-02-20T02:10:02.433Z,3.75
2019-02-20T02:12:37.334Z,3.86
2019-02-20T02:15:19.998Z,3.93
2019-02-20T02:17:48.071Z,4.02
2019-02-20T02:20:22.543Z,3.72
2019-02-20T02:22:56.825Z,3.82
2019-02-20T02:25:31.313Z,3.73
2019-02-20T02:28:05.843Z,3.61
2019-02-20T02:30:40.314Z,3.62
2019-02-20T02:33:14.994Z,3.62
2019-02-20T02:35:49.630Z,3.19
2019-02-20T02:38:23.277Z,3.28
2019-02-20T02:40:57.641Z,3.23
2019-02-20T02:43:32.020Z,3.49
2019-02-20T02:46:06.717Z,3.49
2019-02-20T02:48:41.048Z,3.60
2019-02-20T02:51:15.687Z,3.60
2019-02-20T02:53:49.154Z,3.40
2019-02-20T02:56:23.640Z,3.40
2019-02-20T02:58:57.715Z,3.37
2019-02-20T03:01:31.880Z,3.23
2019-02-20T03:04:06.474Z,3.43
2019-02-20T03:06:41.088Z,3.29
2019-02-20T03:09:15.801Z,3.29
2019-02-20T03:11:50.316Z,3.41
2019-02-20T03:14:24.664Z,3.22
2019-02-20T03:16:58.425Z,3.49
2019-02-20T03:19:33.004Z,3.77
2019-02-20T03:22:07.409Z,3.51
2019-02-20T03:24:41.835Z,3.26
2019-02-20T03:27:16.075Z,2.93
2019-02-20T03:29:50.545Z,2.70
2019-02-20T03:32:25.325Z,2.47
2019-02-20T03:34:59.828Z,2.47
2019-02-20T03:37:34.516Z,2.76
2019-02-20T03:40:08.896Z,2.71
2019-02-20T03:42:43.321Z,2.71
2019-02-20T03:45:17.783Z,2.91
2019-02-20T03:47:52.511Z,2.52
2019-02-20T03:50:26.854Z,2.33
2019-02-20T03:53:01.322Z,2.26
2019-02-20T03:55:35.980Z,2.27
2019-02-20T03:58:10.316Z,1.84
2019-02-20T04:00:44.606Z,1.62
2019-02-20T04:03:19.113Z,1.87
2019-02-20T04:05:53.667Z,1.87
2019-02-20T04:08:27.293Z,2.04
2019-02-20T04:11:01.598Z,1.60
2019-02-20T04:13:35.281Z,1.52
2019-02-20T04:16:09.641Z,1.58
2019-02-20T04:18:43.283Z,1.77
2019-02-20T04:21:18.776Z,1.77
2019-02-20T04:24:01.982Z,1.63
2019-02-20T04:26:32.951Z,1.46
2019-02-20T04:29:07.323Z,1.45
2019-02-20T04:31:41.610Z,1.38
2019-02-20T04:34:15.281Z,1.05
2019-02-20T04:36:49.661Z,1.06
2019-02-20T04:39:23.286Z,1.07
2019-02-20T04:41:57.824Z,1.36
2019-02-20T04:44:32.314Z,1.70
2019-02-20T04:47:06.895Z,1.72
2019-02-20T04:49:41.824Z,1.93
2019-02-20T04:52:17.335Z,1.63
2019-02-20T04:54:52.825Z,1.83
2019-02-20T04:57:27.179Z,1.81
2019-02-20T05:00:04.027Z,1.79
2019-02-20T05:02:40.525Z,1.74
2019-02-20T05:05:14.900Z,2.10
2019-02-20T05:07:49.322Z,2.10
2019-02-20T05:10:23.846Z,1.95
2019-02-20T05:12:58.316Z,1.79
2019-02-20T05:15:32.799Z,1.96
2019-02-20T05:18:07.313Z,2.05
2019-02-20T05:20:42.789Z,2.14
2019-02-20T05:23:17.471Z,2.30
2019-02-20T05:25:52.469Z,2.63
2019-02-20T05:28:26.730Z,2.63
2019-02-20T05:31:01.134Z,2.94
2019-02-20T05:33:35.704Z,2.93
2019-02-20T05:36:10.341Z,3.06
2019-02-20T05:38:44.841Z,2.90
2019-02-20T05:41:19.326Z,3.19
2019-02-20T05:43:53.649Z,3.30
2019-02-20T05:46:28.046Z,3.30
2019-02-20T05:49:02.589Z,3.30
2019-02-20T05:51:37.113Z,3.54
2019-02-20T05:54:11.541Z,3.54
2019-02-20T05:56:45.975Z,3.62
2019-02-20T05:59:20.333Z,3.71
2019-02-20T06:01:54.878Z,3.43
2019-02-20T06:04:29.453Z,3.17
2019-02-20T06:07:03.835Z,3.09
2019-02-20T06:09:38.530Z,2.86
2019-02-20T06:12:13.523Z,2.62
2019-02-20T06:14:48.148Z,2.49
2019-02-20T06:17:22.851Z,2.49
2019-02-20T06:19:57.599Z,2.23
2019-02-20T06:22:31.707Z,1.98
2019-02-20T06:25:06.820Z,2.13
2019-02-20T06:27:41.328Z,2.26
2019-02-20T06:30:16.787Z,2.11
2019-02-20T06:32:51.498Z,1.89
2019-02-20T06:35:25.935Z,1.97
2019-02-20T06:38:00.560Z,1.93
2019-02-20T06:40:34.940Z,1.67
2019-02-20T06:43:09.803Z,1.65
2019-02-20T06:45:44.419Z,1.92
2019-02-20T06:48:18.961Z,2.14
2019-02-20T06:50:53.313Z,2.32
2019-02-20T06:53:27.637Z,2.42
2019-02-20T06:56:01.498Z,2.59
2019-02-20T06:58:36.124Z,3.30
2019-02-20T07:01:10.771Z,3.30
2019-02-20T07:03:45.170Z,3.17
2019-02-20T07:07:15.544Z,3.18
2019-02-20T07:10:37.279Z,3.37
2019-02-20T07:14:03.125Z,3.66
2019-02-20T07:17:27.132Z,3.32
2019-02-20T07:21:42.005Z,3.93
2019-02-20T07:25:40.941Z,3.87
2019-02-20T07:29:18.939Z,4.20
2019-02-20T07:31:53.729Z,4.29
2019-02-20T07:34:28.348Z,4.48
2019-02-20T07:37:02.813Z,4.69
2019-02-20T07:39:37.317Z,4.82
2019-02-20T07:42:12.043Z,4.99
2019-02-20T07:44:46.512Z,5.10
2019-02-20T07:47:21.061Z,5.32
2019-02-20T07:49:55.605Z,5.32
2019-02-20T07:52:30.666Z,5.63
2019-02-20T07:55:12.954Z,5.91
2019-02-20T07:57:43.516Z,5.87
2019-02-20T08:00:18.277Z,5.54
2019-02-20T08:02:53.321Z,6.15
2019-02-20T08:05:28.352Z,6.37
2019-02-20T08:08:03.689Z,5.83
2019-02-20T08:10:39.049Z,6.58
2019-02-20T08:13:14.577Z,6.63
2019-02-20T08:15:48.621Z,6.88
2019-02-20T08:18:25.321Z,6.76
2019-02-20T08:21:01.529Z,7.13
2019-02-20T08:23:36.311Z,7.15
2019-02-20T08:26:10.628Z,7.15
2019-02-20T08:28:44.301Z,6.85
2019-02-20T08:31:18.993Z,7.50
2019-02-20T08:33:54.034Z,7.75
2019-02-20T08:36:28.641Z,8.10
2019-02-20T08:39:04.552Z,8.99
2019-02-20T08:41:40.864Z,9.80
2019-02-20T08:44:27.684Z,10.67
2019-02-20T08:47:01.271Z,10.89
2019-02-20T08:49:35.957Z,12.15
2019-02-20T08:52:10.519Z,13.26
2019-02-20T08:54:46.044Z,13.23
2019-02-20T08:57:20.656Z,13.23
2019-02-20T08:59:55.154Z,13.33
2019-02-20T09:02:29.903Z,13.38
2019-02-20T09:05:05.852Z,14.33
2019-02-20T09:07:41.576Z,15.11
2019-02-20T09:10:17.370Z,15.80
2019-02-20T09:12:51.748Z,16.51
2019-02-20T09:15:26.793Z,17.80
2019-02-20T09:18:01.138Z,17.82
2019-02-20T09:20:35.552Z,18.93
2019-02-20T09:23:09.474Z,19.22
2019-02-20T09:25:44.495Z,18.29
2019-02-20T09:28:19.486Z,18.29
2019-02-20T09:30:54.323Z,18.81
2019-02-20T09:33:35.919Z,18.81
2019-02-20T09:36:11.494Z,20.07
2019-02-20T09:38:46.104Z,18.25
2019-02-20T09:41:20.633Z,18.25
2019-02-20T09:43:55.114Z,18.98
2019-02-20T09:46:29.639Z,17.93
2019-02-20T09:49:04.425Z,16.85
2019-02-20T09:51:38.934Z,16.39
2019-02-20T09:54:13.562Z,16.46
2019-02-20T09:56:47.671Z,17.82
2019-02-20T09:59:23.317Z,17.82
2019-02-20T10:01:57.782Z,19.75
2019-02-20T10:04:32.584Z,21.66
2019-02-20T10:07:06.489Z,22.08
2019-02-20T10:09:40.423Z,23.56
2019-02-20T10:12:14.805Z,23.56
2019-02-20T10:14:49.532Z,23.84
2019-02-20T10:17:24.057Z,24.42
2019-02-20T10:19:58.985Z,23.55
2019-02-20T10:22:33.622Z,24.44
2019-02-20T10:25:09.600Z,25.08
2019-02-20T10:27:44.149Z,25.08
2019-02-20T10:30:18.833Z,24.41
2019-02-20T10:32:53.540Z,24.71
2019-02-20T10:35:27.491Z,22.95
2019-02-20T10:38:01.784Z,22.95
2019-02-20T10:40:38.875Z,23.41
2019-02-20T10:43:13.604Z,22.95
2019-02-20T10:45:47.474Z,22.73
2019-02-20T10:48:25.791Z,22.08
2019-02-20T10:51:01.151Z,22.08
2019-02-20T10:53:37.430Z,22.99
2019-02-20T10:56:12.452Z,22.99
2019-02-20T10:58:46.726Z,23.92
2019-02-20T11:01:22.859Z,23.92
2019-02-20T11:03:58.582Z,24.57
2019-02-20T11:06:33.930Z,23.94
2019-02-20T11:09:10.682Z,24.71
2019-02-20T11:11:47.347Z,25.71
2019-02-20T11:14:22.772Z,25.65
2019-02-20T11:16:58.875Z,25.82
2019-02-20T11:19:34.330Z,24.43
2019-02-20T11:22:09.295Z,24.39
2019-02-20T11:24:44.093Z,24.39
2019-02-20T11:27:19.483Z,24.36
2019-02-20T11:29:54.297Z,24.08
2019-02-20T11:32:28.991Z,24.29
2019-02-20T11:35:05.297Z,24.24
2019-02-20T11:37:39.877Z,23.73
2019-02-20T11:40:14.780Z,24.07
2019-02-20T11:42:49.554Z,24.02
2019-02-20T11:45:24.794Z,23.73
2019-02-20T11:47:59.570Z,23.15
2019-02-20T11:50:33.465Z,22.55
2019-02-20T11:53:08.124Z,22.37
2019-02-20T11:55:42.770Z,21.37
2019-02-20T11:58:17.600Z,21.90
2019-02-20T12:00:52.436Z,21.55
2019-02-20T12:03:26.826Z,21.40
2019-02-20T12:06:01.567Z,21.44
2019-02-20T12:08:36.473Z,20.45
2019-02-20T12:11:13.630Z,20.08
2019-02-20T12:13:48.555Z,20.54
2019-02-20T12:16:23.109Z,20.99
2019-02-20T12:18:57.673Z,20.99
2019-02-20T12:21:32.900Z,20.80
2019-02-20T12:24:07.637Z,22.31
2019-02-20T12:26:42.155Z,22.50
2019-02-20T12:29:16.636Z,22.50
2019-02-20T12:31:52.399Z,22.38
2019-02-20T12:34:27.566Z,20.60
2019-02-20T12:37:02.008Z,21.44
2019-02-20T12:39:36.614Z,22.07
2019-02-20T12:42:12.965Z,22.54
2019-02-20T12:44:47.823Z,21.70
2019-02-20T12:47:22.322Z,21.61
2019-02-20T12:49:58.695Z,22.00
2019-02-20T12:52:33.316Z,22.77
2019-02-20T12:55:08.353Z,23.20
2019-02-20T12:57:44.311Z,22.69
2019-02-20T13:00:20.719Z,22.09
2019-02-20T13:02:55.601Z,22.27
2019-02-20T13:05:30.486Z,22.39
2019-02-20T13:08:05.057Z,22.01
2019-02-20T13:10:39.818Z,22.01
2019-02-20T13:13:14.565Z,22.16
2019-02-20T13:15:48.579Z,20.43
2019-02-20T13:18:23.093Z,20.43
2019-02-20T13:20:59.228Z,20.46
2019-02-20T13:23:34.120Z,20.70
2019-02-20T13:26:09.048Z,20.54
2019-02-20T13:28:43.824Z,20.37
2019-02-20T13:31:18.533Z,20.16
2019-02-20T13:33:53.006Z,20.50
2019-02-20T13:36:27.796Z,20.50
2019-02-20T13:39:02.617Z,19.91
2019-02-20T13:41:38.761Z,19.70
2019-02-20T13:44:13.336Z,19.77
2019-02-20T13:46:48.099Z,19.26
2019-02-20T13:49:22.788Z,19.01
2019-02-20T13:51:57.345Z,19.42
2019-02-20T13:54:31.775Z,18.72
2019-02-20T13:57:06.859Z,18.05
2019-02-20T13:59:41.894Z,18.43
2019-02-20T14:02:16.786Z,18.56
2019-02-20T14:04:51.325Z,17.69
2019-02-20T14:07:26.158Z,17.69
2019-02-20T14:10:00.545Z,17.84
2019-02-20T14:12:34.273Z,17.65
2019-02-20T14:15:11.018Z,17.65
2019-02-20T14:17:45.698Z,17.11
2019-02-20T14:20:20.132Z,16.76
2019-02-20T14:22:54.543Z,16.30
2019-02-20T14:25:29.309Z,16.42
2019-02-20T14:28:04.334Z,16.42
2019-02-20T14:30:39.013Z,15.58
2019-02-20T14:33:13.874Z,15.74
2019-02-20T14:35:48.385Z,16.22
2019-02-20T14:38:23.000Z,16.76
2019-02-20T14:40:57.618Z,16.76
2019-02-20T14:43:34.889Z,16.73
2019-02-20T14:46:09.624Z,16.92
2019-02-20T14:48:43.588Z,17.13
2019-02-20T14:51:18.530Z,17.51
2019-02-20T14:53:54.347Z,17.51
2019-02-20T14:56:29.044Z,17.13
2019-02-20T14:59:03.815Z,17.13
2019-02-20T15:01:39.754Z,17.08
2019-02-20T15:04:14.729Z,16.95
2019-02-20T15:06:49.470Z,16.86
2019-02-20T15:09:24.057Z,16.64
2019-02-20T15:11:58.824Z,16.64
2019-02-20T15:14:34.673Z,16.56
2019-02-20T15:17:09.612Z,16.40
2019-02-20T15:19:43.490Z,16.45
2019-02-20T15:22:18.492Z,16.04
2019-02-20T15:24:53.269Z,15.25
2019-02-20T15:27:28.909Z,14.81
2019-02-20T15:30:04.845Z,14.81
2019-02-20T15:32:39.576Z,14.97
2019-02-20T15:35:14.671Z,14.22
2019-02-20T15:37:48.618Z,13.60
2019-02-20T15:40:22.281Z,13.70
2019-02-20T15:42:56.982Z,13.68
2019-02-20T15:45:31.637Z,13.68
2019-02-20T15:48:06.131Z,13.00
2019-02-20T15:50:40.818Z,13.00
2019-02-20T15:53:16.929Z,13.14
2019-02-20T15:55:51.715Z,13.29
2019-02-20T15:58:27.313Z,13.55
2019-02-20T16:01:01.837Z,13.63
2019-02-20T16:03:37.105Z,13.33
2019-02-20T16:06:11.877Z,13.39
2019-02-20T16:08:46.975Z,13.13
2019-02-20T16:11:21.555Z,13.25
2019-02-20T16:13:56.516Z,13.47
2019-02-20T16:16:33.536Z,13.47
2019-02-20T16:19:09.015Z,13.33
2019-02-20T16:21:43.916Z,12.91
2019-02-20T16:24:59.529Z,12.80
2019-02-20T16:30:32.728Z,12.64
2019-02-20T16:33:07.315Z,12.45
2019-02-20T16:35:41.979Z,12.32
2019-02-20T16:38:16.825Z,12.16
2019-02-20T16:40:51.529Z,12.04
2019-02-20T16:43:25.537Z,11.86
2019-02-20T16:45:59.015Z,11.71
2019-02-20T16:48:33.535Z,11.60
2019-02-20T16:51:08.290Z,11.25
2019-02-20T16:53:43.310Z,11.25
2019-02-20T16:56:17.790Z,11.27
2019-02-20T16:58:52.421Z,11.18
2019-02-20T17:01:27.013Z,10.92
2019-02-20T17:04:01.543Z,10.87
2019-02-20T17:06:36.094Z,10.82
2019-02-20T17:09:10.719Z,10.82
2019-02-20T17:11:45.635Z,10.56
2019-02-20T17:14:20.641Z,10.52
2019-02-20T17:16:54.798Z,10.58
2019-02-20T17:19:29.664Z,10.27
2019-02-20T17:22:04.310Z,10.41
2019-02-20T17:24:39.017Z,10.38
2019-02-20T17:27:13.709Z,10.13
2019-02-20T17:29:48.540Z,9.95
2019-02-20T17:32:22.654Z,10.02
2019-02-20T17:34:57.865Z,9.98
2019-02-20T17:37:32.882Z,10.15
2019-02-20T17:40:08.534Z,10.17
2019-02-20T17:42:43.314Z,10.34
2019-02-20T17:45:17.877Z,10.25
2019-02-20T17:47:54.168Z,10.17
2019-02-20T17:50:28.961Z,9.90
2019-02-20T17:53:03.830Z,9.61
2019-02-20T17:55:38.546Z,9.87
2019-02-20T17:58:15.399Z,9.99
2019-02-20T18:00:49.566Z,10.19
2019-02-20T18:03:24.560Z,9.71
2019-02-20T18:05:58.614Z,9.71
2019-02-20T18:08:33.545Z,9.79
2019-02-20T18:11:08.118Z,9.81
2019-02-20T18:13:42.868Z,9.81
2019-02-20T18:18:38.165Z,9.10
2019-02-20T18:21:15.124Z,8.97
2019-02-20T18:23:49.997Z,9.01
2019-02-20T18:26:24.662Z,8.94
2019-02-20T18:28:59.455Z,8.84
2019-02-20T18:31:34.056Z,8.65
2019-02-20T18:34:08.866Z,8.53
2019-02-20T18:36:43.642Z,8.42
2019-02-20T18:39:18.341Z,8.33
2019-02-20T18:41:53.112Z,8.37
2019-02-20T18:44:27.925Z,8.29
2019-02-20T18:47:02.665Z,8.19
2019-02-20T18:49:38.909Z,7.98
2019-02-20T18:52:13.567Z,7.92
2019-02-20T18:54:48.692Z,7.80
2019-02-20T18:57:24.007Z,7.80
2019-02-20T18:59:58.529Z,8.01
2019-02-20T19:02:34.089Z,8.02
2019-02-20T19:05:09.831Z,8.07
2019-02-20T19:07:44.746Z,7.92
2019-02-20T19:10:30.667Z,8.08
2019-02-20T19:13:54.875Z,7.72
2019-02-20T19:18:01.572Z,7.59
2019-02-20T19:20:59.056Z,7.44
2019-02-20T19:24:33.550Z,7.38
2019-02-20T19:28:00.842Z,7.19
2019-02-20T19:31:38.632Z,7.19
2019-02-20T19:35:21.018Z,7.03
2019-02-20T19:38:43.845Z,6.91
2019-02-20T19:42:38.321Z,6.68
2019-02-20T19:46:25.957Z,6.43
2019-02-20T19:50:14.715Z,6.59
2019-02-20T19:54:42.160Z,6.44
2019-02-20T19:58:25.863Z,6.30
2019-02-20T20:02:12.854Z,6.30
2019-02-20T20:05:48.885Z,6.23
2019-02-20T20:09:38.804Z,6.27
2019-02-20T20:13:09.995Z,6.00
2019-02-20T20:16:51.929Z,5.65
2019-02-20T20:20:22.991Z,5.58
2019-02-20T20:23:59.732Z,5.53
2019-02-20T20:27:50.970Z,5.52
2019-02-20T20:31:14.353Z,6.11
2019-02-20T20:35:27.786Z,6.28
2019-02-20T20:39:41.055Z,6.48
2019-02-20T20:43:27.186Z,6.90
2019-02-20T20:46:51.513Z,7.20
2019-02-20T20:50:33.212Z,7.19
2019-02-20T20:54:28.733Z,7.19
2019-02-20T20:58:30.789Z,7.29
2019-02-20T21:02:06.364Z,7.83
2019-02-20T21:05:44.676Z,7.78
2019-02-20T21:09:13.539Z,7.45
2019-02-20T21:12:53.627Z,7.39
2019-02-20T21:16:41.516Z,7.21
2019-02-20T21:20:10.470Z,6.91
2019-02-20T21:24:05.111Z,6.29
2019-02-20T21:27:28.439Z,6.29
2019-02-20T21:31:09.557Z,6.38
2019-02-20T21:34:46.508Z,6.06
2019-02-20T21:38:49.015Z,6.11
2019-02-20T21:42:52.128Z,6.11
2019-02-20T21:46:30.542Z,6.16
2019-02-20T21:49:59.328Z,5.88
2019-02-20T21:54:03.927Z,6.08
2019-02-20T21:57:32.454Z,6.31
2019-02-20T22:01:08.129Z,6.23
2019-02-20T22:05:14.328Z,6.23
2019-02-20T22:09:38.022Z,6.57
2019-02-20T22:13:50.311Z,6.57
2019-02-20T22:17:29.053Z,5.89
2019-02-20T22:20:52.316Z,5.40
2019-02-20T22:24:24.907Z,5.39
2019-02-20T22:28:21.406Z,5.33
2019-02-20T22:32:48.121Z,5.13
2019-02-20T22:36:46.558Z,5.13
2019-02-20T22:40:07.815Z,4.57
2019-02-20T22:43:50.122Z,4.57
2019-02-20T22:47:45.523Z,4.48
2019-02-20T22:51:26.616Z,4.50
2019-02-20T22:55:24.104Z,4.37
2019-02-20T22:59:06.466Z,4.37
2019-02-20T23:03:13.302Z,4.74
2019-02-20T23:07:02.866Z,4.74
2019-02-20T23:10:47.655Z,4.86
2019-02-20T23:14:36.658Z,4.27
2019-02-20T23:17:10.477Z,4.18
2019-02-20T23:19:45.104Z,3.83
2019-02-20T23:22:19.916Z,3.83
2019-02-20T23:24:55.522Z,3.83
2019-02-20T23:27:30.021Z,3.80
2019-02-20T23:30:12.914Z,3.80
2019-02-20T23:32:43.449Z,3.86
2019-02-20T23:35:17.780Z,3.67
2019-02-20T23:37:52.130Z,3.67
2019-02-20T23:40:27.763Z,3.54
2019-02-20T23:43:02.637Z,3.74
2019-02-20T23:45:36.486Z,3.58
2019-02-20T23:48:10.486Z,3.39
2019-02-20T23:50:45.081Z,3.61
2019-02-20T23:53:19.545Z,3.61
2019-02-20T23:55:53.919Z,3.85
2019-02-20T23:58:31.793Z,3.85
